createdAt,value
2018-12-09T00:00:30.477Z,987.71
2018-12-09T00:01:30.376Z,987.76
2018-12-09T00:02:30.366Z,987.73
2018-12-09T00:03:30.359Z,987.72
2018-12-09T00:04:30.351Z,987.63
2018-12-09T00:05:30.344Z,987.61
2018-12-09T00:06:30.341Z,987.58
2018-12-09T00:07:30.330Z,987.48
2018-12-09T00:08:30.325Z,987.50
2018-12-09T00:09:30.317Z,987.44
2018-12-09T00:10:30.312Z,987.47
2018-12-09T00:11:30.300Z,987.43
2018-12-09T00:12:30.295Z,987.37
2018-12-09T00:13:30.288Z,987.31
2018-12-09T00:14:30.286Z,987.32
2018-12-09T00:15:30.272Z,987.30
2018-12-09T00:16:30.267Z,987.20
2018-12-09T00:17:30.257Z,987.25
2018-12-09T00:18:30.251Z,987.19
2018-12-09T00:19:30.245Z,987.16
2018-12-09T00:20:30.238Z,987.14
2018-12-09T00:21:30.230Z,987.12
2018-12-09T00:22:30.223Z,987.08
2018-12-09T00:23:30.217Z,987.09
2018-12-09T00:24:30.206Z,987.00
2018-12-09T00:25:30.204Z,987.02
2018-12-09T00:26:30.190Z,987.00
2018-12-09T00:27:30.188Z,986.98
2018-12-09T00:28:30.180Z,986.91
2018-12-09T00:29:30.175Z,986.92
2018-12-09T00:30:30.161Z,986.83
2018-12-09T00:31:30.154Z,986.80
2018-12-09T00:32:30.149Z,986.81
2018-12-09T00:33:30.147Z,986.81
2018-12-09T00:34:30.133Z,986.73
2018-12-09T00:35:30.129Z,986.76
2018-12-09T00:36:30.119Z,986.76
2018-12-09T00:37:30.114Z,986.69
2018-12-09T00:38:30.108Z,986.63
2018-12-09T00:39:30.098Z,986.60
2018-12-09T00:40:30.089Z,986.58
2018-12-09T00:41:30.095Z,986.57
2018-12-09T00:42:30.077Z,986.55
2018-12-09T00:43:30.066Z,986.50
2018-12-09T00:44:30.065Z,986.51
2018-12-09T00:45:30.057Z,986.40
2018-12-09T00:46:30.046Z,986.43
2018-12-09T00:47:30.039Z,986.39
2018-12-09T00:48:30.036Z,986.37
2018-12-09T00:49:30.025Z,986.32
2018-12-09T00:50:30.019Z,986.24
2018-12-09T00:51:30.006Z,986.25
2018-12-09T00:52:30.003Z,986.23
2018-12-09T00:53:29.996Z,986.21
2018-12-09T00:54:29.989Z,986.19
2018-12-09T00:55:29.982Z,986.16
2018-12-09T00:56:29.972Z,986.07
2018-12-09T00:57:29.965Z,986.10
2018-12-09T00:58:29.969Z,986.01
2018-12-09T00:59:29.953Z,986.04
2018-12-09T01:00:29.943Z,985.99
2018-12-09T01:01:29.935Z,985.90
2018-12-09T01:02:29.929Z,985.95
2018-12-09T01:03:29.928Z,985.88
2018-12-09T01:04:29.912Z,985.87
2018-12-09T01:05:29.912Z,985.76
2018-12-09T01:06:29.895Z,985.75
2018-12-09T01:07:29.892Z,985.75
2018-12-09T01:08:29.888Z,985.77
2018-12-09T01:09:29.877Z,985.68
2018-12-09T01:10:29.871Z,985.67
2018-12-09T01:11:29.861Z,985.64
2018-12-09T01:12:29.857Z,985.65
2018-12-09T01:13:29.848Z,985.64
2018-12-09T01:14:29.842Z,985.60
2018-12-09T01:15:29.834Z,985.58
2018-12-09T01:16:29.826Z,985.55
2018-12-09T01:17:29.820Z,985.50
2018-12-09T01:18:29.814Z,985.43
2018-12-09T01:19:29.804Z,985.43
2018-12-09T01:20:29.796Z,985.41
2018-12-09T01:21:29.795Z,985.36
2018-12-09T01:22:29.783Z,985.31
2018-12-09T01:23:29.775Z,985.30
2018-12-09T01:24:29.768Z,985.26
2018-12-09T01:25:29.757Z,985.20
2018-12-09T01:26:29.760Z,985.20
2018-12-09T01:27:29.745Z,985.20
2018-12-09T01:28:29.736Z,985.23
2018-12-09T01:29:29.730Z,985.18
2018-12-09T01:30:29.720Z,985.16
2018-12-09T01:31:30.386Z,985.16
2018-12-09T01:32:29.707Z,985.17
2018-12-09T01:33:29.702Z,985.14
2018-12-09T01:34:29.693Z,985.06
2018-12-09T01:35:29.683Z,984.99
2018-12-09T01:36:29.680Z,985.02
2018-12-09T01:37:29.670Z,984.99
2018-12-09T01:38:29.661Z,985.03
2018-12-09T01:39:29.656Z,984.99
2018-12-09T01:40:29.649Z,985.01
2018-12-09T01:41:29.646Z,984.91
2018-12-09T01:42:29.630Z,984.91
2018-12-09T01:43:29.624Z,984.87
2018-12-09T01:44:30.315Z,984.91
2018-12-09T01:45:29.613Z,984.87
2018-12-09T01:46:29.605Z,984.78
2018-12-09T01:47:29.603Z,984.78
2018-12-09T01:48:29.590Z,984.65
2018-12-09T01:49:29.583Z,984.62
2018-12-09T01:50:29.576Z,984.56
2018-12-09T01:51:29.565Z,984.60
2018-12-09T01:52:29.571Z,984.60
2018-12-09T01:53:29.552Z,984.60
2018-12-09T01:54:29.545Z,984.66
2018-12-09T01:55:29.536Z,984.68
2018-12-09T01:56:29.534Z,984.62
2018-12-09T01:57:29.523Z,984.66
2018-12-09T01:58:29.515Z,984.61
2018-12-09T01:59:29.508Z,984.64
2018-12-09T02:00:29.504Z,984.47
2018-12-09T02:01:29.501Z,984.43
2018-12-09T02:02:29.485Z,984.41
2018-12-09T02:03:29.479Z,984.45
2018-12-09T02:04:29.476Z,984.50
2018-12-09T02:05:29.468Z,984.41
2018-12-09T02:06:29.456Z,984.42
2018-12-09T02:07:29.455Z,984.40
2018-12-09T02:08:29.447Z,984.38
2018-12-09T02:09:29.441Z,984.33
2018-12-09T02:10:29.430Z,984.31
2018-12-09T02:11:29.423Z,984.36
2018-12-09T02:12:29.414Z,984.32
2018-12-09T02:13:29.407Z,984.27
2018-12-09T02:14:29.397Z,984.22
2018-12-09T02:15:29.392Z,984.15
2018-12-09T02:16:29.385Z,984.08
2018-12-09T02:17:29.379Z,984.18
2018-12-09T02:18:29.369Z,984.19
2018-12-09T02:19:29.363Z,984.21
2018-12-09T02:20:29.361Z,984.16
2018-12-09T02:21:29.346Z,984.09
2018-12-09T02:22:29.375Z,984.12
2018-12-09T02:23:29.339Z,984.04
2018-12-09T02:24:29.331Z,984.07
2018-12-09T02:25:29.323Z,984.08
2018-12-09T02:26:29.311Z,984.00
2018-12-09T02:27:29.306Z,984.00
2018-12-09T02:28:29.299Z,984.03
2018-12-09T02:29:29.290Z,984.00
2018-12-09T02:30:29.288Z,984.00
2018-12-09T02:31:29.277Z,983.95
2018-12-09T02:32:29.271Z,983.91
2018-12-09T02:33:29.262Z,983.95
2018-12-09T02:34:29.250Z,983.92
2018-12-09T02:35:29.245Z,983.90
2018-12-09T02:36:29.238Z,983.80
2018-12-09T02:37:29.235Z,983.82
2018-12-09T02:38:29.225Z,983.83
2018-12-09T02:39:29.217Z,983.76
2018-12-09T02:40:29.210Z,983.83
2018-12-09T02:41:29.204Z,983.78
2018-12-09T02:42:29.196Z,983.71
2018-12-09T02:43:29.187Z,983.66
2018-12-09T02:44:29.183Z,983.66
2018-12-09T02:45:29.177Z,983.64
2018-12-09T02:46:29.165Z,983.59
2018-12-09T02:47:29.174Z,983.60
2018-12-09T02:48:29.151Z,983.58
2018-12-09T02:49:29.150Z,983.63
2018-12-09T02:50:29.141Z,983.63
2018-12-09T02:51:29.132Z,983.62
2018-12-09T02:52:29.121Z,983.57
2018-12-09T02:53:29.835Z,983.45
2018-12-09T02:54:29.831Z,983.52
2018-12-09T02:55:29.099Z,983.51
2018-12-09T02:56:29.099Z,983.46
2018-12-09T02:57:29.827Z,983.45
2018-12-09T02:58:29.082Z,983.40
2018-12-09T02:59:29.079Z,983.41
2018-12-09T03:00:29.068Z,983.37
2018-12-09T03:01:29.062Z,983.33
2018-12-09T03:02:29.055Z,983.30
2018-12-09T03:03:29.044Z,983.33
2018-12-09T03:04:29.045Z,983.39
2018-12-09T03:05:29.034Z,983.37
2018-12-09T03:06:29.029Z,983.35
2018-12-09T03:07:29.023Z,983.37
2018-12-09T03:08:29.013Z,983.26
2018-12-09T03:09:29.002Z,983.25
2018-12-09T03:10:28.993Z,983.24
2018-12-09T03:11:28.994Z,983.30
2018-12-09T03:12:28.986Z,983.21
2018-12-09T03:13:28.973Z,983.20
2018-12-09T03:14:28.967Z,983.18
2018-12-09T03:15:28.966Z,983.26
2018-12-09T03:16:28.961Z,983.22
2018-12-09T03:17:28.946Z,983.23
2018-12-09T03:18:28.940Z,983.19
2018-12-09T03:19:28.932Z,983.18
2018-12-09T03:20:28.927Z,983.19
2018-12-09T03:21:28.918Z,983.12
2018-12-09T03:22:28.912Z,983.12
2018-12-09T03:23:28.907Z,983.13
2018-12-09T03:24:28.899Z,983.11
2018-12-09T03:25:28.890Z,983.12
2018-12-09T03:26:28.881Z,983.13
2018-12-09T03:27:28.876Z,983.09
2018-12-09T03:28:28.871Z,983.11
2018-12-09T03:29:28.863Z,983.13
2018-12-09T03:30:28.858Z,983.13
2018-12-09T03:31:28.859Z,983.12
2018-12-09T03:32:28.870Z,983.10
2018-12-09T03:33:28.837Z,983.08
2018-12-09T03:34:28.824Z,983.04
2018-12-09T03:35:28.827Z,983.10
2018-12-09T03:36:28.815Z,983.05
2018-12-09T03:37:28.806Z,983.04
2018-12-09T03:38:28.797Z,982.95
2018-12-09T03:39:28.799Z,982.97
2018-12-09T03:40:28.794Z,982.98
2018-12-09T03:41:28.777Z,983.00
2018-12-09T03:42:28.771Z,982.98
2018-12-09T03:43:28.764Z,982.96
2018-12-09T03:44:28.756Z,982.98
2018-12-09T03:45:28.757Z,982.97
2018-12-09T03:46:28.751Z,982.98
2018-12-09T03:47:28.747Z,982.96
2018-12-09T03:48:28.728Z,983.01
2018-12-09T03:49:28.722Z,982.92
2018-12-09T03:50:28.714Z,982.93
2018-12-09T03:51:28.712Z,982.88
2018-12-09T03:52:28.704Z,982.90
2018-12-09T03:53:28.694Z,982.86
2018-12-09T03:54:28.689Z,982.88
2018-12-09T03:55:28.683Z,982.84
2018-12-09T03:56:28.676Z,982.89
2018-12-09T03:57:28.668Z,982.88
2018-12-09T03:58:28.660Z,982.81
2018-12-09T03:59:28.654Z,982.78
2018-12-09T04:00:28.649Z,982.78
2018-12-09T04:01:28.643Z,982.76
2018-12-09T04:02:28.635Z,982.84
2018-12-09T04:03:28.626Z,982.83
2018-12-09T04:04:28.621Z,982.84
2018-12-09T04:05:28.610Z,982.88
2018-12-09T04:06:28.607Z,982.86
2018-12-09T04:07:28.600Z,982.82
2018-12-09T04:08:28.594Z,982.79
2018-12-09T04:09:28.586Z,982.88
2018-12-09T04:10:28.582Z,982.79
2018-12-09T04:11:28.573Z,982.75
2018-12-09T04:12:28.567Z,982.83
2018-12-09T04:13:28.557Z,982.77
2018-12-09T04:14:28.556Z,982.78
2018-12-09T04:15:28.544Z,982.83
2018-12-09T04:16:28.540Z,982.78
2018-12-09T04:17:28.536Z,982.77
2018-12-09T04:18:28.529Z,982.78
2018-12-09T04:19:28.514Z,982.71
2018-12-09T04:20:28.513Z,982.77
2018-12-09T04:21:28.506Z,982.68
2018-12-09T04:22:28.509Z,982.71
2018-12-09T04:23:28.488Z,982.72
2018-12-09T04:24:28.484Z,982.69
2018-12-09T04:25:28.473Z,982.72
2018-12-09T04:26:28.473Z,982.71
2018-12-09T04:27:28.462Z,982.69
2018-12-09T04:28:28.457Z,982.70
2018-12-09T04:29:28.451Z,982.68
2018-12-09T04:30:28.450Z,982.69
2018-12-09T04:31:28.436Z,982.73
2018-12-09T04:32:28.430Z,982.67
2018-12-09T04:33:28.425Z,982.63
2018-12-09T04:34:28.421Z,982.67
2018-12-09T04:35:28.512Z,982.64
2018-12-09T04:36:28.406Z,982.61
2018-12-09T04:37:28.399Z,982.58
2018-12-09T04:38:28.389Z,982.58
2018-12-09T04:39:28.381Z,982.56
2018-12-09T04:40:28.378Z,982.54
2018-12-09T04:41:28.370Z,982.56
2018-12-09T04:42:28.364Z,982.56
2018-12-09T04:43:28.355Z,982.59
2018-12-09T04:44:28.349Z,982.56
2018-12-09T04:45:28.346Z,982.62
2018-12-09T04:46:28.334Z,982.60
2018-12-09T04:47:28.327Z,982.57
2018-12-09T04:48:28.323Z,982.62
2018-12-09T04:49:28.319Z,982.63
2018-12-09T04:50:28.312Z,982.62
2018-12-09T04:51:28.303Z,982.67
2018-12-09T04:52:28.297Z,982.59
2018-12-09T04:53:28.289Z,982.58
2018-12-09T04:54:28.280Z,982.61
2018-12-09T04:55:28.277Z,982.63
2018-12-09T04:56:28.277Z,982.64
2018-12-09T04:57:28.262Z,982.60
2018-12-09T04:58:28.254Z,982.63
2018-12-09T04:59:28.249Z,982.65
2018-12-09T05:00:28.242Z,982.61
2018-12-09T05:01:28.234Z,982.60
2018-12-09T05:02:28.230Z,982.67
2018-12-09T05:03:28.221Z,982.60
2018-12-09T05:04:28.214Z,982.64
2018-12-09T05:05:28.214Z,982.65
2018-12-09T05:06:28.200Z,982.69
2018-12-09T05:07:28.194Z,982.69
2018-12-09T05:08:28.188Z,982.67
2018-12-09T05:09:28.191Z,982.64
2018-12-09T05:10:28.174Z,982.69
2018-12-09T05:11:28.167Z,982.68
2018-12-09T05:12:28.163Z,982.73
2018-12-09T05:13:28.159Z,982.70
2018-12-09T05:14:28.150Z,982.68
2018-12-09T05:15:28.140Z,982.70
2018-12-09T05:16:28.135Z,982.70
2018-12-09T05:17:28.127Z,982.70
2018-12-09T05:18:28.120Z,982.71
2018-12-09T05:19:28.113Z,982.74
2018-12-09T05:20:28.110Z,982.80
2018-12-09T05:21:28.169Z,982.73
2018-12-09T05:22:28.098Z,982.72
2018-12-09T05:23:28.088Z,982.77
2018-12-09T05:24:28.081Z,982.79
2018-12-09T05:25:28.072Z,982.79
2018-12-09T05:26:28.062Z,982.80
2018-12-09T05:27:28.063Z,982.79
2018-12-09T05:28:28.055Z,982.87
2018-12-09T05:29:28.051Z,982.83
2018-12-09T05:30:28.040Z,982.81
2018-12-09T05:31:28.034Z,982.82
2018-12-09T05:32:28.027Z,982.86
2018-12-09T05:33:28.024Z,982.93
2018-12-09T05:34:28.013Z,982.90
2018-12-09T05:35:28.009Z,982.91
2018-12-09T05:36:28.001Z,982.88
2018-12-09T05:37:27.996Z,982.93
2018-12-09T05:38:27.986Z,982.92
2018-12-09T05:39:27.986Z,983.01
2018-12-09T05:40:27.975Z,983.02
2018-12-09T05:41:27.970Z,982.96
2018-12-09T05:42:27.956Z,982.93
2018-12-09T05:43:27.954Z,982.97
2018-12-09T05:44:27.947Z,983.03
2018-12-09T05:45:27.942Z,983.04
2018-12-09T05:46:27.934Z,983.05
2018-12-09T05:47:27.931Z,983.09
2018-12-09T05:48:27.922Z,983.08
2018-12-09T05:49:27.914Z,983.10
2018-12-09T05:50:27.907Z,983.06
2018-12-09T05:51:27.903Z,983.05
2018-12-09T05:52:27.892Z,983.06
2018-12-09T05:53:27.890Z,983.05
2018-12-09T05:54:27.877Z,983.00
2018-12-09T05:55:27.872Z,983.06
2018-12-09T05:56:27.867Z,983.07
2018-12-09T05:57:27.866Z,983.14
2018-12-09T05:58:27.903Z,983.11
2018-12-09T05:59:27.846Z,983.11
2018-12-09T06:00:27.840Z,983.11
2018-12-09T06:01:27.843Z,983.15
2018-12-09T06:02:27.827Z,983.15
2018-12-09T06:03:27.818Z,983.12
2018-12-09T06:04:27.814Z,983.20
2018-12-09T06:05:27.810Z,983.14
2018-12-09T06:06:27.797Z,983.18
2018-12-09T06:07:27.794Z,983.15
2018-12-09T06:08:27.789Z,983.16
2018-12-09T06:09:27.786Z,983.22
2018-12-09T06:10:27.775Z,983.25
2018-12-09T06:11:27.765Z,983.26
2018-12-09T06:12:27.761Z,983.33
2018-12-09T06:13:27.762Z,983.31
2018-12-09T06:14:27.745Z,983.38
2018-12-09T06:15:27.739Z,983.36
2018-12-09T06:16:27.730Z,983.36
2018-12-09T06:17:27.738Z,983.38
2018-12-09T06:18:27.718Z,983.46
2018-12-09T06:19:27.715Z,983.44
2018-12-09T06:20:27.706Z,983.50
2018-12-09T06:21:27.699Z,983.50
2018-12-09T06:22:27.691Z,983.55
2018-12-09T06:23:27.686Z,983.47
2018-12-09T06:24:27.680Z,983.59
2018-12-09T06:25:27.676Z,983.65
2018-12-09T06:26:27.664Z,983.65
2018-12-09T06:27:27.656Z,983.60
2018-12-09T06:28:27.654Z,983.65
2018-12-09T06:29:27.645Z,983.63
2018-12-09T06:30:27.637Z,983.67
2018-12-09T06:31:27.633Z,983.70
2018-12-09T06:32:27.622Z,983.74
2018-12-09T06:33:27.617Z,983.77
2018-12-09T06:34:27.610Z,983.78
2018-12-09T06:35:27.604Z,983.80
2018-12-09T06:36:27.603Z,983.81
2018-12-09T06:37:27.594Z,983.86
2018-12-09T06:38:27.583Z,983.91
2018-12-09T06:39:27.576Z,983.89
2018-12-09T06:40:27.571Z,983.89
2018-12-09T06:41:27.563Z,983.89
2018-12-09T06:42:27.553Z,983.96
2018-12-09T06:43:27.548Z,984.01
2018-12-09T06:44:27.542Z,984.05
2018-12-09T06:45:27.535Z,984.02
2018-12-09T06:46:27.529Z,983.98
2018-12-09T06:47:27.520Z,984.06
2018-12-09T06:48:27.517Z,984.09
2018-12-09T06:49:27.507Z,984.11
2018-12-09T06:50:27.501Z,984.18
2018-12-09T06:51:27.492Z,984.12
2018-12-09T06:52:27.496Z,984.21
2018-12-09T06:53:27.479Z,984.23
2018-12-09T06:54:27.473Z,984.20
2018-12-09T06:55:27.469Z,984.24
2018-12-09T06:56:27.461Z,984.29
2018-12-09T06:57:27.452Z,984.34
2018-12-09T06:58:27.443Z,984.28
2018-12-09T06:59:27.434Z,984.37
2018-12-09T07:00:27.430Z,984.35
2018-12-09T07:01:27.421Z,984.42
2018-12-09T07:02:27.415Z,984.36
2018-12-09T07:03:27.406Z,984.40
2018-12-09T07:04:27.401Z,984.54
2018-12-09T07:05:27.395Z,984.51
2018-12-09T07:06:27.388Z,984.54
2018-12-09T07:07:27.689Z,984.57
2018-12-09T07:08:27.372Z,984.57
2018-12-09T07:09:27.363Z,984.54
2018-12-09T07:10:27.358Z,984.57
2018-12-09T07:11:27.351Z,984.69
2018-12-09T07:12:27.345Z,984.69
2018-12-09T07:13:27.338Z,984.68
2018-12-09T07:14:27.331Z,984.69
2018-12-09T07:15:27.336Z,984.70
2018-12-09T07:16:27.318Z,984.70
2018-12-09T07:17:27.311Z,984.71
2018-12-09T07:18:27.301Z,984.73
2018-12-09T07:19:27.299Z,984.69
2018-12-09T07:20:27.285Z,984.73
2018-12-09T07:21:27.284Z,984.76
2018-12-09T07:22:27.267Z,984.76
2018-12-09T07:23:27.264Z,984.76
2018-12-09T07:24:27.259Z,984.79
2018-12-09T07:25:27.251Z,984.82
2018-12-09T07:26:27.241Z,984.78
2018-12-09T07:27:27.238Z,984.84
2018-12-09T07:28:27.228Z,984.86
2018-12-09T07:29:27.222Z,984.83
2018-12-09T07:30:27.216Z,984.91
2018-12-09T07:31:27.208Z,984.90
2018-12-09T07:32:27.202Z,984.93
2018-12-09T07:33:27.193Z,984.97
2018-12-09T07:34:27.187Z,985.00
2018-12-09T07:35:27.175Z,984.97
2018-12-09T07:36:27.170Z,984.99
2018-12-09T07:37:27.163Z,985.01
2018-12-09T07:38:27.160Z,985.01
2018-12-09T07:39:27.149Z,985.10
2018-12-09T07:40:27.141Z,985.10
2018-12-09T07:41:27.132Z,985.13
2018-12-09T07:42:27.123Z,985.11
2018-12-09T07:43:27.121Z,985.14
2018-12-09T07:44:27.113Z,985.18
2018-12-09T07:45:27.107Z,985.20
2018-12-09T07:46:27.099Z,985.22
2018-12-09T07:47:27.090Z,985.22
2018-12-09T07:48:27.089Z,985.25
2018-12-09T07:49:27.080Z,985.28
2018-12-09T07:50:27.073Z,985.27
2018-12-09T07:51:27.063Z,985.29
2018-12-09T07:52:27.062Z,985.30
2018-12-09T07:53:27.049Z,985.34
2018-12-09T07:54:27.037Z,985.27
2018-12-09T07:55:27.034Z,985.35
2018-12-09T07:56:27.028Z,985.32
2018-12-09T07:57:27.022Z,985.35
2018-12-09T07:58:27.013Z,985.37
2018-12-09T07:59:27.008Z,985.39
2018-12-09T08:00:27.004Z,985.28
2018-12-09T08:01:26.998Z,985.38
2018-12-09T08:02:26.982Z,985.39
2018-12-09T08:03:26.977Z,985.42
2018-12-09T08:04:26.969Z,985.42
2018-12-09T08:05:26.963Z,985.47
2018-12-09T08:06:26.955Z,985.43
2018-12-09T08:07:26.948Z,985.52
2018-12-09T08:08:26.940Z,985.47
2018-12-09T08:09:26.938Z,985.58
2018-12-09T08:10:26.927Z,985.57
2018-12-09T08:11:26.924Z,985.56
2018-12-09T08:12:26.914Z,985.63
2018-12-09T08:13:26.907Z,985.65
2018-12-09T08:14:26.901Z,985.72
2018-12-09T08:15:26.891Z,985.70
2018-12-09T08:16:26.886Z,985.65
2018-12-09T08:17:26.877Z,985.74
2018-12-09T08:18:26.871Z,985.73
2018-12-09T08:19:26.862Z,985.76
2018-12-09T08:20:26.867Z,985.76
2018-12-09T08:21:26.849Z,985.78
2018-12-09T08:22:26.843Z,985.83
2018-12-09T08:23:26.832Z,985.87
2018-12-09T08:24:26.832Z,985.84
2018-12-09T08:25:26.820Z,985.87
2018-12-09T08:26:26.810Z,985.91
2018-12-09T08:27:26.803Z,985.91
2018-12-09T08:28:26.798Z,985.93
2018-12-09T08:29:26.790Z,985.93
2018-12-09T08:30:26.784Z,985.93
2018-12-09T08:31:26.775Z,985.96
2018-12-09T08:32:26.770Z,986.03
2018-12-09T08:33:26.763Z,985.95
2018-12-09T08:34:26.760Z,986.00
2018-12-09T08:35:26.748Z,985.99
2018-12-09T08:36:26.743Z,985.96
2018-12-09T08:37:26.736Z,986.02
2018-12-09T08:38:26.729Z,986.07
2018-12-09T08:39:26.728Z,986.12
2018-12-09T08:40:26.713Z,986.14
2018-12-09T08:41:26.708Z,986.15
2018-12-09T08:42:26.697Z,986.19
2018-12-09T08:43:26.698Z,986.21
2018-12-09T08:44:26.686Z,986.24
2018-12-09T08:45:26.680Z,986.24
2018-12-09T08:46:26.672Z,986.28
2018-12-09T08:47:26.669Z,986.30
2018-12-09T08:48:26.658Z,986.29
2018-12-09T08:49:26.655Z,986.35
2018-12-09T08:50:26.643Z,986.38
2018-12-09T08:51:26.643Z,986.33
2018-12-09T08:52:26.626Z,986.36
2018-12-09T08:53:26.625Z,986.37
2018-12-09T08:54:26.614Z,986.40
2018-12-09T08:55:26.610Z,986.42
2018-12-09T08:56:26.600Z,986.40
2018-12-09T08:57:26.593Z,986.42
2018-12-09T08:58:26.585Z,986.43
2018-12-09T08:59:26.579Z,986.43
2018-12-09T09:00:26.573Z,986.51
2018-12-09T09:01:26.566Z,986.49
2018-12-09T09:02:26.557Z,986.53
2018-12-09T09:03:26.552Z,986.56
2018-12-09T09:04:26.543Z,986.55
2018-12-09T09:05:26.538Z,986.57
2018-12-09T09:06:26.530Z,986.50
2018-12-09T09:07:26.523Z,986.57
2018-12-09T09:08:26.519Z,986.56
2018-12-09T09:09:26.511Z,986.60
2018-12-09T09:10:26.510Z,986.60
2018-12-09T09:11:26.498Z,986.60
2018-12-09T09:12:26.490Z,986.63
2018-12-09T09:13:26.487Z,986.62
2018-12-09T09:14:26.478Z,986.63
2018-12-09T09:15:26.468Z,986.66
2018-12-09T09:16:26.465Z,986.66
2018-12-09T09:17:26.456Z,986.67
2018-12-09T09:18:26.451Z,986.68
2018-12-09T09:19:26.443Z,986.68
2018-12-09T09:20:26.439Z,986.75
2018-12-09T09:21:26.427Z,986.74
2018-12-09T09:22:26.429Z,986.75
2018-12-09T09:23:26.418Z,986.76
2018-12-09T09:24:26.407Z,986.76
2018-12-09T09:25:26.402Z,986.77
2018-12-09T09:26:26.398Z,986.84
2018-12-09T09:27:26.388Z,986.84
2018-12-09T09:28:26.381Z,986.86
2018-12-09T09:29:26.374Z,986.87
2018-12-09T09:30:26.373Z,986.88
2018-12-09T09:31:26.362Z,986.87
2018-12-09T09:32:26.354Z,986.89
2018-12-09T09:33:26.347Z,986.91
2018-12-09T09:34:26.345Z,986.90
2018-12-09T09:35:26.335Z,986.94
2018-12-09T09:36:26.328Z,986.98
2018-12-09T09:37:26.316Z,987.03
2018-12-09T09:38:26.318Z,987.00
2018-12-09T09:39:26.308Z,986.97
2018-12-09T09:40:26.300Z,986.97
2018-12-09T09:41:26.295Z,987.02
2018-12-09T09:42:26.293Z,986.94
2018-12-09T09:43:26.279Z,986.97
2018-12-09T09:44:26.279Z,987.01
2018-12-09T09:45:26.270Z,986.98
2018-12-09T09:46:26.265Z,986.97
2018-12-09T09:47:26.254Z,987.02
2018-12-09T09:48:26.248Z,987.02
2018-12-09T09:49:26.244Z,987.02
2018-12-09T09:50:26.240Z,987.07
2018-12-09T09:51:26.226Z,987.03
2018-12-09T09:52:26.225Z,987.08
2018-12-09T09:53:26.260Z,987.07
2018-12-09T09:54:26.208Z,987.10
2018-12-09T09:55:26.200Z,987.04
2018-12-09T09:56:26.195Z,987.06
2018-12-09T09:57:26.193Z,987.11
2018-12-09T09:58:26.190Z,987.16
2018-12-09T09:59:26.178Z,987.25
2018-12-09T10:00:26.173Z,987.25
2018-12-09T10:01:26.165Z,987.27
2018-12-09T10:02:26.163Z,987.25
2018-12-09T10:03:26.306Z,987.27
2018-12-09T10:04:26.148Z,987.21
2018-12-09T10:05:26.137Z,987.24
2018-12-09T10:06:26.136Z,987.24
2018-12-09T10:07:26.127Z,987.24
2018-12-09T10:08:26.121Z,987.27
2018-12-09T10:09:26.114Z,987.32
2018-12-09T10:10:27.003Z,987.21
2018-12-09T10:11:26.103Z,987.24
2018-12-09T10:12:26.098Z,987.26
2018-12-09T10:13:26.087Z,987.27
2018-12-09T10:14:26.081Z,987.28
2018-12-09T10:15:26.072Z,987.21
2018-12-09T10:16:26.069Z,987.30
2018-12-09T10:17:26.062Z,987.27
2018-12-09T10:18:26.056Z,987.26
2018-12-09T10:19:26.158Z,987.28
2018-12-09T10:20:26.043Z,987.29
2018-12-09T10:21:26.036Z,987.32
2018-12-09T10:22:26.029Z,987.32
2018-12-09T10:23:26.024Z,987.32
2018-12-09T10:24:26.016Z,987.34
2018-12-09T10:25:26.010Z,987.26
2018-12-09T10:26:26.003Z,987.33
2018-12-09T10:27:25.996Z,987.30
2018-12-09T10:28:25.992Z,987.29
2018-12-09T10:29:25.996Z,987.33
2018-12-09T10:30:25.977Z,987.33
2018-12-09T10:31:25.971Z,987.34
2018-12-09T10:32:25.964Z,987.35
2018-12-09T10:33:25.959Z,987.37
2018-12-09T10:34:25.951Z,987.35
2018-12-09T10:35:25.945Z,987.30
2018-12-09T10:36:25.939Z,987.33
2018-12-09T10:37:25.935Z,987.37
2018-12-09T10:38:25.927Z,987.39
2018-12-09T10:39:25.920Z,987.37
2018-12-09T10:40:25.915Z,987.36
2018-12-09T10:41:25.909Z,987.35
2018-12-09T10:42:25.902Z,987.43
2018-12-09T10:43:25.895Z,987.42
2018-12-09T10:44:25.889Z,987.40
2018-12-09T10:45:25.883Z,987.42
2018-12-09T10:46:25.876Z,987.45
2018-12-09T10:47:25.869Z,987.44
2018-12-09T10:48:25.862Z,987.42
2018-12-09T10:49:25.857Z,987.39
2018-12-09T10:50:25.860Z,987.44
2018-12-09T10:51:25.843Z,987.32
2018-12-09T10:52:25.839Z,987.38
2018-12-09T10:53:25.832Z,987.43
2018-12-09T10:54:25.847Z,987.41
2018-12-09T10:55:25.822Z,987.38
2018-12-09T10:56:25.810Z,987.43
2018-12-09T10:57:25.804Z,987.47
2018-12-09T10:58:25.796Z,987.49
2018-12-09T10:59:25.791Z,987.52
2018-12-09T11:00:25.785Z,987.55
2018-12-09T11:01:25.781Z,987.52
2018-12-09T11:02:25.777Z,987.48
2018-12-09T11:03:25.772Z,987.48
2018-12-09T11:04:25.758Z,987.47
2018-12-09T11:05:25.754Z,987.51
2018-12-09T11:06:25.752Z,987.52
2018-12-09T11:07:25.749Z,987.51
2018-12-09T11:08:25.735Z,987.53
2018-12-09T11:09:25.728Z,987.51
2018-12-09T11:10:26.444Z,987.51
2018-12-09T11:11:25.720Z,987.53
2018-12-09T11:12:25.708Z,987.53
2018-12-09T11:13:25.701Z,987.56
2018-12-09T11:14:25.696Z,987.57
2018-12-09T11:15:25.693Z,987.56
2018-12-09T11:16:25.682Z,987.51
2018-12-09T11:17:25.675Z,987.53
2018-12-09T11:18:25.671Z,987.53
2018-12-09T11:19:25.668Z,987.54
2018-12-09T11:20:25.654Z,987.59
2018-12-09T11:21:30.597Z,987.56
2018-12-09T11:22:25.645Z,987.60
2018-12-09T11:23:25.640Z,987.63
2018-12-09T11:24:25.638Z,987.62
2018-12-09T11:25:25.630Z,987.60
2018-12-09T11:26:25.617Z,987.59
2018-12-09T11:27:25.617Z,987.57
2018-12-09T11:28:25.605Z,987.59
2018-12-09T11:29:25.601Z,987.59
2018-12-09T11:30:25.588Z,987.63
2018-12-09T11:31:25.589Z,987.58
2018-12-09T11:32:25.579Z,987.61
2018-12-09T11:33:25.576Z,987.60
2018-12-09T11:34:25.567Z,987.57
2018-12-09T11:35:25.562Z,987.54
2018-12-09T11:36:25.553Z,987.58
2018-12-09T11:37:25.551Z,987.61
2018-12-09T11:38:25.539Z,987.59
2018-12-09T11:39:25.536Z,987.66
2018-12-09T11:40:25.524Z,987.61
2018-12-09T11:41:25.523Z,987.60
2018-12-09T11:42:25.517Z,987.61
2018-12-09T11:43:25.508Z,987.61
2018-12-09T11:44:25.500Z,987.65
2018-12-09T11:45:25.496Z,987.60
2018-12-09T11:46:25.489Z,987.59
2018-12-09T11:47:25.486Z,987.58
2018-12-09T11:48:25.477Z,987.61
2018-12-09T11:49:25.472Z,987.66
2018-12-09T11:50:25.463Z,987.57
2018-12-09T11:51:25.459Z,987.64
2018-12-09T11:52:25.452Z,987.66
2018-12-09T11:53:25.445Z,987.65
2018-12-09T11:54:25.441Z,987.67
2018-12-09T11:55:25.436Z,987.65
2018-12-09T11:56:25.428Z,987.63
2018-12-09T11:57:25.420Z,987.71
2018-12-09T11:58:25.414Z,987.67
2018-12-09T11:59:25.407Z,987.63
2018-12-09T12:00:25.401Z,987.64
2018-12-09T12:01:25.397Z,987.62
2018-12-09T12:02:25.387Z,987.63
2018-12-09T12:03:25.380Z,987.61
2018-12-09T12:04:25.378Z,987.64
2018-12-09T12:05:25.370Z,987.63
2018-12-09T12:06:25.363Z,987.64
2018-12-09T12:07:25.352Z,987.66
2018-12-09T12:08:25.351Z,987.66
2018-12-09T12:09:25.345Z,987.71
2018-12-09T12:10:25.337Z,987.63
2018-12-09T12:11:25.336Z,987.66
2018-12-09T12:12:25.330Z,987.68
2018-12-09T12:13:25.318Z,987.67
2018-12-09T12:14:25.959Z,987.62
2018-12-09T12:15:25.303Z,987.67
2018-12-09T12:16:25.306Z,987.65
2018-12-09T12:17:25.292Z,987.71
2018-12-09T12:18:25.288Z,987.72
2018-12-09T12:19:25.279Z,987.75
2018-12-09T12:20:25.273Z,987.70
2018-12-09T12:21:25.267Z,987.70
2018-12-09T12:22:25.260Z,987.73
2018-12-09T12:23:25.255Z,987.73
2018-12-09T12:24:25.255Z,987.76
2018-12-09T12:25:25.243Z,987.78
2018-12-09T12:26:25.235Z,987.75
2018-12-09T12:27:25.230Z,987.78
2018-12-09T12:28:25.229Z,987.81